sensor_id;sensor_type;location;lat;lon;timestamp;P1;durP1;ratioP1;P2;durP2;ratioP2
48751;SDS011;34544;48.836;9.174;2023-05-10T00:01:47;1.42;;;0.45;;
48751;SDS011;34544;48.836;9.174;2023-05-10T00:04:13;1.00;;;0.38;;
48751;SDS011;34544;48.836;9.174;2023-05-10T00:06:39;3.08;;;0.43;;
48751;SDS011;34544;48.836;9.174;2023-05-10T00:09:04;0.20;;;0.20;;
48751;SDS011;34544;48.836;9.174;2023-05-10T00:11:30;0.47;;;0.35;;
48751;SDS011;34544;48.836;9.174;2023-05-10T00:13:56;0.20;;;0.20;;
48751;SDS011;34544;48.836;9.174;2023-05-10T00:16:21;0.43;;;0.32;;
48751;SDS011;34544;48.836;9.174;2023-05-10T00:18:47;0.47;;;0.10;;
48751;SDS011;34544;48.836;9.174;2023-05-10T00:21:13;0.20;;;0.20;;
48751;SDS011;34544;48.836;9.174;2023-05-10T00:23:39;0.10;;;0.10;;
48751;SDS011;34544;48.836;9.174;2023-05-10T00:26:04;2.28;;;0.25;;
48751;SDS011;34544;48.836;9.174;2023-05-10T00:28:30;2.58;;;0.30;;
48751;SDS011;34544;48.836;9.174;2023-05-10T00:30:55;0.28;;;0.28;;
48751;SDS011;34544;48.836;9.174;2023-05-10T00:33:21;0.30;;;0.30;;
48751;SDS011;34544;48.836;9.174;2023-05-10T00:35:47;0.25;;;0.20;;
48751;SDS011;34544;48.836;9.174;2023-05-10T00:38:14;1.00;;;0.20;;
48751;SDS011;34544;48.836;9.174;2023-05-10T00:40:40;0.25;;;0.10;;
48751;SDS011;34544;48.836;9.174;2023-05-10T00:43:12;0.10;;;0.10;;
48751;SDS011;34544;48.836;9.174;2023-05-10T00:45:38;2.30;;;0.30;;
48751;SDS011;34544;48.836;9.174;2023-05-10T00:48:06;0.50;;;0.20;;
48751;SDS011;34544;48.836;9.174;2023-05-10T00:50:32;13.35;;;0.30;;
48751;SDS011;34544;48.836;9.174;2023-05-10T00:52:59;0.03;;;0.03;;
48751;SDS011;34544;48.836;9.174;2023-05-10T00:55:25;4.47;;;0.30;;
48751;SDS011;34544;48.836;9.174;2023-05-10T00:57:52;0.13;;;0.13;;
48751;SDS011;34544;48.836;9.174;2023-05-10T01:00:18;0.28;;;0.20;;
48751;SDS011;34544;48.836;9.174;2023-05-10T01:02:44;0.00;;;0.00;;
48751;SDS011;34544;48.836;9.174;2023-05-10T01:05:11;0.10;;;0.10;;
48751;SDS011;34544;48.836;9.174;2023-05-10T01:07:37;0.10;;;0.03;;
48751;SDS011;34544;48.836;9.174;2023-05-10T01:10:03;0.68;;;0.25;;
48751;SDS011;34544;48.836;9.174;2023-05-10T01:12:29;0.60;;;0.20;;
48751;SDS011;34544;48.836;9.174;2023-05-10T01:14:55;0.40;;;0.32;;
48751;SDS011;34544;48.836;9.174;2023-05-10T01:17:22;2.08;;;0.20;;
48751;SDS011;34544;48.836;9.174;2023-05-10T01:19:48;0.20;;;0.20;;
48751;SDS011;34544;48.836;9.174;2023-05-10T01:25:27;1.10;;;0.35;;
48751;SDS011;34544;48.836;9.174;2023-05-10T01:28:16;0.20;;;0.20;;
48751;SDS011;34544;48.836;9.174;2023-05-10T01:31:03;0.20;;;0.20;;
48751;SDS011;34544;48.836;9.174;2023-05-10T01:36:48;3.83;;;0.38;;
48751;SDS011;34544;48.836;9.174;2023-05-10T01:42:04;1.20;;;0.40;;
48751;SDS011;34544;48.836;9.174;2023-05-10T01:47:43;0.50;;;0.45;;
48751;SDS011;34544;48.836;9.174;2023-05-10T01:50:10;1.45;;;0.60;;
48751;SDS011;34544;48.836;9.174;2023-05-10T01:52:42;0.50;;;0.40;;
48751;SDS011;34544;48.836;9.174;2023-05-10T01:55:14;0.40;;;0.40;;
48751;SDS011;34544;48.836;9.174;2023-05-10T01:57:43;0.63;;;0.60;;
48751;SDS011;34544;48.836;9.174;2023-05-10T02:00:11;0.40;;;0.40;;
48751;SDS011;34544;48.836;9.174;2023-05-10T02:02:43;5.60;;;1.30;;
48751;SDS011;34544;48.836;9.174;2023-05-10T02:05:12;0.73;;;0.38;;
48751;SDS011;34544;48.836;9.174;2023-05-10T02:07:39;0.80;;;0.70;;
48751;SDS011;34544;48.836;9.174;2023-05-10T02:10:07;0.63;;;0.50;;
48751;SDS011;34544;48.836;9.174;2023-05-10T02:12:35;0.95;;;0.77;;
48751;SDS011;34544;48.836;9.174;2023-05-10T02:15:03;0.50;;;0.47;;
48751;SDS011;34544;48.836;9.174;2023-05-10T02:17:37;0.77;;;0.60;;
48751;SDS011;34544;48.836;9.174;2023-05-10T02:20:05;0.68;;;0.60;;
48751;SDS011;34544;48.836;9.174;2023-05-10T02:22:32;2.15;;;0.70;;
48751;SDS011;34544;48.836;9.174;2023-05-10T02:25:00;1.42;;;1.15;;
48751;SDS011;34544;48.836;9.174;2023-05-10T02:27:28;1.02;;;0.75;;
48751;SDS011;34544;48.836;9.174;2023-05-10T02:29:55;1.10;;;0.70;;
48751;SDS011;34544;48.836;9.174;2023-05-10T02:32:22;0.57;;;0.52;;
48751;SDS011;34544;48.836;9.174;2023-05-10T02:34:51;3.00;;;0.70;;
48751;SDS011;34544;48.836;9.174;2023-05-10T02:37:18;0.50;;;0.50;;
48751;SDS011;34544;48.836;9.174;2023-05-10T02:39:52;0.60;;;0.52;;
48751;SDS011;34544;48.836;9.174;2023-05-10T02:42:22;2.65;;;0.80;;
48751;SDS011;34544;48.836;9.174;2023-05-10T02:44:52;2.58;;;0.60;;
48751;SDS011;34544;48.836;9.174;2023-05-10T02:47:19;0.43;;;0.43;;
48751;SDS011;34544;48.836;9.174;2023-05-10T02:49:45;1.48;;;0.70;;
48751;SDS011;34544;48.836;9.174;2023-05-10T02:52:14;2.20;;;0.82;;
48751;SDS011;34544;48.836;9.174;2023-05-10T02:54:48;0.95;;;0.57;;
48751;SDS011;34544;48.836;9.174;2023-05-10T02:57:17;2.72;;;0.90;;
48751;SDS011;34544;48.836;9.174;2023-05-10T02:59:56;1.42;;;0.68;;
48751;SDS011;34544;48.836;9.174;2023-05-10T03:02:22;1.98;;;0.70;;
48751;SDS011;34544;48.836;9.174;2023-05-10T03:04:48;1.00;;;0.70;;
48751;SDS011;34544;48.836;9.174;2023-05-10T03:07:14;0.60;;;0.60;;
48751;SDS011;34544;48.836;9.174;2023-05-10T03:09:40;1.15;;;0.80;;
48751;SDS011;34544;48.836;9.174;2023-05-10T03:12:18;0.95;;;0.70;;
48751;SDS011;34544;48.836;9.174;2023-05-10T03:14:53;2.15;;;0.80;;
48751;SDS011;34544;48.836;9.174;2023-05-10T03:17:30;2.38;;;1.30;;
48751;SDS011;34544;48.836;9.174;2023-05-10T03:20:06;1.85;;;1.38;;
48751;SDS011;34544;48.836;9.174;2023-05-10T03:22:37;5.07;;;4.57;;
48751;SDS011;34544;48.836;9.174;2023-05-10T03:25:08;5.53;;;5.03;;
48751;SDS011;34544;48.836;9.174;2023-05-10T03:27:39;6.00;;;4.35;;
48751;SDS011;34544;48.836;9.174;2023-05-10T03:30:10;5.60;;;4.40;;
48751;SDS011;34544;48.836;9.174;2023-05-10T03:32:37;4.57;;;2.75;;
48751;SDS011;34544;48.836;9.174;2023-05-10T03:35:07;3.50;;;2.78;;
48751;SDS011;34544;48.836;9.174;2023-05-10T03:37:33;3.20;;;2.20;;
48751;SDS011;34544;48.836;9.174;2023-05-10T03:39:59;2.60;;;2.40;;
48751;SDS011;34544;48.836;9.174;2023-05-10T03:42:25;4.75;;;2.47;;
48751;SDS011;34544;48.836;9.174;2023-05-10T03:44:51;3.40;;;2.13;;
48751;SDS011;34544;48.836;9.174;2023-05-10T03:47:17;3.70;;;1.88;;
48751;SDS011;34544;48.836;9.174;2023-05-10T03:49:43;2.78;;;1.60;;
48751;SDS011;34544;48.836;9.174;2023-05-10T03:52:10;1.65;;;1.55;;
48751;SDS011;34544;48.836;9.174;2023-05-10T03:54:37;2.13;;;1.70;;
48751;SDS011;34544;48.836;9.174;2023-05-10T03:57:03;3.45;;;1.65;;
48751;SDS011;34544;48.836;9.174;2023-05-10T03:59:29;3.60;;;2.00;;
48751;SDS011;34544;48.836;9.174;2023-05-10T04:01:56;2.92;;;1.90;;
48751;SDS011;34544;48.836;9.174;2023-05-10T04:04:22;4.95;;;2.00;;
48751;SDS011;34544;48.836;9.174;2023-05-10T04:06:49;2.55;;;1.50;;
48751;SDS011;34544;48.836;9.174;2023-05-10T04:09:15;3.15;;;1.55;;
48751;SDS011;34544;48.836;9.174;2023-05-10T04:11:41;2.30;;;1.80;;
48751;SDS011;34544;48.836;9.174;2023-05-10T04:14:07;2.33;;;1.58;;
48751;SDS011;34544;48.836;9.174;2023-05-10T04:16:33;1.63;;;1.52;;
48751;SDS011;34544;48.836;9.174;2023-05-10T04:18:58;2.28;;;1.83;;
48751;SDS011;34544;48.836;9.174;2023-05-10T04:21:25;1.88;;;1.50;;
48751;SDS011;34544;48.836;9.174;2023-05-10T04:23:50;1.35;;;1.25;;
48751;SDS011;34544;48.836;9.174;2023-05-10T04:26:16;6.18;;;1.30;;
48751;SDS011;34544;48.836;9.174;2023-05-10T04:28:42;3.05;;;1.20;;
48751;SDS011;34544;48.836;9.174;2023-05-10T04:31:08;1.50;;;1.40;;
48751;SDS011;34544;48.836;9.174;2023-05-10T04:33:35;2.42;;;1.73;;
48751;SDS011;34544;48.836;9.174;2023-05-10T04:36:01;2.95;;;1.58;;
48751;SDS011;34544;48.836;9.174;2023-05-10T04:38:28;1.73;;;1.30;;
48751;SDS011;34544;48.836;9.174;2023-05-10T04:40:54;1.65;;;1.15;;
48751;SDS011;34544;48.836;9.174;2023-05-10T04:43:19;1.63;;;1.10;;
48751;SDS011;34544;48.836;9.174;2023-05-10T04:45:45;2.90;;;1.17;;
48751;SDS011;34544;48.836;9.174;2023-05-10T04:48:11;1.52;;;1.17;;
48751;SDS011;34544;48.836;9.174;2023-05-10T04:50:37;1.48;;;1.23;;
48751;SDS011;34544;48.836;9.174;2023-05-10T04:53:04;1.42;;;1.30;;
48751;SDS011;34544;48.836;9.174;2023-05-10T04:55:30;3.95;;;1.63;;
48751;SDS011;34544;48.836;9.174;2023-05-10T04:57:55;2.67;;;1.40;;
48751;SDS011;34544;48.836;9.174;2023-05-10T05:00:22;2.03;;;1.50;;
48751;SDS011;34544;48.836;9.174;2023-05-10T05:02:48;1.05;;;0.85;;
48751;SDS011;34544;48.836;9.174;2023-05-10T05:05:14;1.10;;;1.00;;
48751;SDS011;34544;48.836;9.174;2023-05-10T05:07:39;1.33;;;1.05;;
48751;SDS011;34544;48.836;9.174;2023-05-10T05:10:06;1.75;;;1.15;;
48751;SDS011;34544;48.836;9.174;2023-05-10T05:12:32;1.98;;;1.10;;
48751;SDS011;34544;48.836;9.174;2023-05-10T05:14:58;0.80;;;0.80;;
48751;SDS011;34544;48.836;9.174;2023-05-10T05:17:23;0.73;;;0.73;;
48751;SDS011;34544;48.836;9.174;2023-05-10T05:19:49;1.50;;;0.90;;
48751;SDS011;34544;48.836;9.174;2023-05-10T05:22:15;2.05;;;0.95;;
48751;SDS011;34544;48.836;9.174;2023-05-10T05:24:40;1.55;;;1.10;;
48751;SDS011;34544;48.836;9.174;2023-05-10T05:27:06;0.80;;;0.80;;
48751;SDS011;34544;48.836;9.174;2023-05-10T05:29:32;1.30;;;1.05;;
48751;SDS011;34544;48.836;9.174;2023-05-10T05:31:58;1.58;;;0.98;;
48751;SDS011;34544;48.836;9.174;2023-05-10T05:34:23;2.05;;;1.20;;
48751;SDS011;34544;48.836;9.174;2023-05-10T05:36:49;1.55;;;1.45;;
48751;SDS011;34544;48.836;9.174;2023-05-10T05:39:15;2.95;;;1.13;;
48751;SDS011;34544;48.836;9.174;2023-05-10T05:41:41;1.80;;;1.30;;
48751;SDS011;34544;48.836;9.174;2023-05-10T05:44:07;1.38;;;1.27;;
48751;SDS011;34544;48.836;9.174;2023-05-10T05:46:33;1.63;;;1.30;;
48751;SDS011;34544;48.836;9.174;2023-05-10T05:48:58;6.90;;;1.40;;
48751;SDS011;34544;48.836;9.174;2023-05-10T05:51:24;3.53;;;1.00;;
48751;SDS011;34544;48.836;9.174;2023-05-10T05:53:50;6.03;;;1.10;;
48751;SDS011;34544;48.836;9.174;2023-05-10T05:56:15;1.30;;;1.05;;
48751;SDS011;34544;48.836;9.174;2023-05-10T05:58:42;2.35;;;1.05;;
48751;SDS011;34544;48.836;9.174;2023-05-10T06:01:09;1.85;;;1.27;;
48751;SDS011;34544;48.836;9.174;2023-05-10T06:03:35;2.03;;;1.52;;
48751;SDS011;34544;48.836;9.174;2023-05-10T06:06:00;2.40;;;1.42;;
48751;SDS011;34544;48.836;9.174;2023-05-10T06:08:26;3.67;;;1.48;;
48751;SDS011;34544;48.836;9.174;2023-05-10T06:10:51;2.90;;;1.13;;
48751;SDS011;34544;48.836;9.174;2023-05-10T06:13:17;11.20;;;1.30;;
48751;SDS011;34544;48.836;9.174;2023-05-10T06:15:43;1.63;;;0.93;;
48751;SDS011;34544;48.836;9.174;2023-05-10T06:18:08;1.25;;;1.00;;
48751;SDS011;34544;48.836;9.174;2023-05-10T06:20:34;2.22;;;1.13;;
48751;SDS011;34544;48.836;9.174;2023-05-10T06:23:00;1.35;;;1.02;;
48751;SDS011;34544;48.836;9.174;2023-05-10T06:25:25;4.90;;;2.00;;
48751;SDS011;34544;48.836;9.174;2023-05-10T06:27:51;4.65;;;1.60;;
48751;SDS011;34544;48.836;9.174;2023-05-10T06:30:22;3.17;;;1.15;;
48751;SDS011;34544;48.836;9.174;2023-05-10T06:32:52;1.73;;;1.00;;
48751;SDS011;34544;48.836;9.174;2023-05-10T06:35:18;1.67;;;1.25;;
48751;SDS011;34544;48.836;9.174;2023-05-10T06:37:44;3.08;;;1.40;;
48751;SDS011;34544;48.836;9.174;2023-05-10T06:40:10;3.60;;;1.20;;
48751;SDS011;34544;48.836;9.174;2023-05-10T06:42:36;3.22;;;1.48;;
48751;SDS011;34544;48.836;9.174;2023-05-10T06:45:02;1.42;;;1.00;;
48751;SDS011;34544;48.836;9.174;2023-05-10T06:47:27;0.98;;;0.90;;
48751;SDS011;34544;48.836;9.174;2023-05-10T06:49:53;1.30;;;1.20;;
48751;SDS011;34544;48.836;9.174;2023-05-10T06:52:19;2.10;;;1.20;;
48751;SDS011;34544;48.836;9.174;2023-05-10T06:54:44;2.10;;;1.20;;
48751;SDS011;34544;48.836;9.174;2023-05-10T06:57:10;2.65;;;1.30;;
48751;SDS011;34544;48.836;9.174;2023-05-10T06:59:36;4.70;;;1.20;;
48751;SDS011;34544;48.836;9.174;2023-05-10T07:02:01;4.15;;;1.15;;
48751;SDS011;34544;48.836;9.174;2023-05-10T07:04:27;3.47;;;0.90;;
48751;SDS011;34544;48.836;9.174;2023-05-10T07:06:53;1.30;;;1.00;;
48751;SDS011;34544;48.836;9.174;2023-05-10T07:09:18;3.75;;;1.05;;
48751;SDS011;34544;48.836;9.174;2023-05-10T07:11:44;3.25;;;1.27;;
48751;SDS011;34544;48.836;9.174;2023-05-10T07:14:10;1.00;;;0.88;;
48751;SDS011;34544;48.836;9.174;2023-05-10T07:16:35;2.05;;;1.10;;
48751;SDS011;34544;48.836;9.174;2023-05-10T07:19:01;3.67;;;1.00;;
48751;SDS011;34544;48.836;9.174;2023-05-10T07:21:27;1.60;;;0.80;;
48751;SDS011;34544;48.836;9.174;2023-05-10T07:23:53;1.27;;;0.73;;
48751;SDS011;34544;48.836;9.174;2023-05-10T07:26:19;1.30;;;1.10;;
48751;SDS011;34544;48.836;9.174;2023-05-10T07:28:45;3.67;;;0.75;;
48751;SDS011;34544;48.836;9.174;2023-05-10T07:31:12;1.20;;;0.60;;
48751;SDS011;34544;48.836;9.174;2023-05-10T07:33:38;1.92;;;0.80;;
48751;SDS011;34544;48.836;9.174;2023-05-10T07:36:03;2.20;;;1.00;;
48751;SDS011;34544;48.836;9.174;2023-05-10T07:38:29;1.33;;;0.50;;
48751;SDS011;34544;48.836;9.174;2023-05-10T07:40:55;3.45;;;1.80;;
48751;SDS011;34544;48.836;9.174;2023-05-10T07:43:20;0.45;;;0.45;;
48751;SDS011;34544;48.836;9.174;2023-05-10T07:45:46;1.63;;;0.70;;
48751;SDS011;34544;48.836;9.174;2023-05-10T07:48:12;1.20;;;0.80;;
48751;SDS011;34544;48.836;9.174;2023-05-10T07:50:37;2.95;;;0.70;;
48751;SDS011;34544;48.836;9.174;2023-05-10T07:53:03;1.70;;;0.90;;
48751;SDS011;34544;48.836;9.174;2023-05-10T07:55:29;0.60;;;0.60;;
48751;SDS011;34544;48.836;9.174;2023-05-10T07:57:55;1.05;;;0.77;;
48751;SDS011;34544;48.836;9.174;2023-05-10T08:00:21;0.70;;;0.40;;
48751;SDS011;34544;48.836;9.174;2023-05-10T08:02:46;1.40;;;0.47;;
48751;SDS011;34544;48.836;9.174;2023-05-10T08:05:12;1.48;;;0.75;;
48751;SDS011;34544;48.836;9.174;2023-05-10T08:07:38;1.92;;;0.55;;
48751;SDS011;34544;48.836;9.174;2023-05-10T08:10:05;4.63;;;0.93;;
48751;SDS011;34544;48.836;9.174;2023-05-10T08:12:31;0.52;;;0.50;;
48751;SDS011;34544;48.836;9.174;2023-05-10T08:14:56;2.10;;;0.82;;
48751;SDS011;34544;48.836;9.174;2023-05-10T08:17:22;0.70;;;0.60;;
48751;SDS011;34544;48.836;9.174;2023-05-10T08:19:48;1.23;;;0.50;;
48751;SDS011;34544;48.836;9.174;2023-05-10T08:22:14;2.17;;;0.60;;
48751;SDS011;34544;48.836;9.174;2023-05-10T08:24:39;1.83;;;0.70;;
48751;SDS011;34544;48.836;9.174;2023-05-10T08:27:07;6.10;;;1.23;;
48751;SDS011;34544;48.836;9.174;2023-05-10T08:29:33;0.10;;;0.10;;
48751;SDS011;34544;48.836;9.174;2023-05-10T08:31:59;0.40;;;0.35;;
48751;SDS011;34544;48.836;9.174;2023-05-10T08:34:26;0.57;;;0.40;;
48751;SDS011;34544;48.836;9.174;2023-05-10T08:36:52;0.85;;;0.30;;
48751;SDS011;34544;48.836;9.174;2023-05-10T08:39:17;2.40;;;0.40;;
48751;SDS011;34544;48.836;9.174;2023-05-10T08:41:43;1.13;;;0.47;;
48751;SDS011;34544;48.836;9.174;2023-05-10T08:44:10;0.65;;;0.30;;
48751;SDS011;34544;48.836;9.174;2023-05-10T08:46:35;0.38;;;0.30;;
48751;SDS011;34544;48.836;9.174;2023-05-10T08:49:04;3.15;;;0.40;;
48751;SDS011;34544;48.836;9.174;2023-05-10T08:51:34;0.38;;;0.38;;
48751;SDS011;34544;48.836;9.174;2023-05-10T08:54:02;1.15;;;0.25;;
48751;SDS011;34544;48.836;9.174;2023-05-10T08:56:29;4.05;;;1.35;;
48751;SDS011;34544;48.836;9.174;2023-05-10T08:58:55;2.67;;;0.32;;
48751;SDS011;34544;48.836;9.174;2023-05-10T09:01:22;1.42;;;0.40;;
48751;SDS011;34544;48.836;9.174;2023-05-10T09:03:48;0.88;;;0.50;;
48751;SDS011;34544;48.836;9.174;2023-05-10T09:06:14;2.33;;;0.25;;
48751;SDS011;34544;48.836;9.174;2023-05-10T09:08:41;1.20;;;0.30;;
48751;SDS011;34544;48.836;9.174;2023-05-10T09:11:08;0.30;;;0.30;;
48751;SDS011;34544;48.836;9.174;2023-05-10T09:13:35;0.60;;;0.40;;
48751;SDS011;34544;48.836;9.174;2023-05-10T09:16:02;2.88;;;0.50;;
48751;SDS011;34544;48.836;9.174;2023-05-10T09:18:28;0.75;;;0.20;;
48751;SDS011;34544;48.836;9.174;2023-05-10T09:20:54;0.82;;;0.40;;
48751;SDS011;34544;48.836;9.174;2023-05-10T09:23:19;1.70;;;0.20;;
48751;SDS011;34544;48.836;9.174;2023-05-10T09:25:45;4.53;;;0.45;;
48751;SDS011;34544;48.836;9.174;2023-05-10T09:28:11;0.28;;;0.20;;
48751;SDS011;34544;48.836;9.174;2023-05-10T09:30:37;1.30;;;0.38;;
48751;SDS011;34544;48.836;9.174;2023-05-10T09:33:03;1.20;;;0.45;;
48751;SDS011;34544;48.836;9.174;2023-05-10T09:35:30;0.57;;;0.38;;
48751;SDS011;34544;48.836;9.174;2023-05-10T09:37:58;0.32;;;0.13;;
48751;SDS011;34544;48.836;9.174;2023-05-10T09:40:26;0.65;;;0.30;;
48751;SDS011;34544;48.836;9.174;2023-05-10T09:45:30;0.98;;;0.40;;
48751;SDS011;34544;48.836;9.174;2023-05-10T09:47:56;0.98;;;0.40;;
48751;SDS011;34544;48.836;9.174;2023-05-10T09:50:24;0.95;;;0.45;;
48751;SDS011;34544;48.836;9.174;2023-05-10T09:53:00;0.82;;;0.32;;
48751;SDS011;34544;48.836;9.174;2023-05-10T09:55:41;1.10;;;0.43;;
48751;SDS011;34544;48.836;9.174;2023-05-10T09:58:11;2.88;;;0.20;;
48751;SDS011;34544;48.836;9.174;2023-05-10T10:00:41;1.33;;;0.50;;
48751;SDS011;34544;48.836;9.174;2023-05-10T10:03:12;1.45;;;0.35;;
48751;SDS011;34544;48.836;9.174;2023-05-10T10:05:39;1.05;;;0.40;;
48751;SDS011;34544;48.836;9.174;2023-05-10T10:08:06;0.93;;;0.63;;
48751;SDS011;34544;48.836;9.174;2023-05-10T10:10:32;4.50;;;0.75;;
48751;SDS011;34544;48.836;9.174;2023-05-10T10:12:58;0.30;;;0.30;;
48751;SDS011;34544;48.836;9.174;2023-05-10T10:15:25;1.75;;;0.52;;
48751;SDS011;34544;48.836;9.174;2023-05-10T10:17:52;0.45;;;0.35;;
48751;SDS011;34544;48.836;9.174;2023-05-10T10:20:18;1.90;;;0.40;;
48751;SDS011;34544;48.836;9.174;2023-05-10T10:22:46;0.70;;;0.60;;
48751;SDS011;34544;48.836;9.174;2023-05-10T10:25:14;2.85;;;0.52;;
48751;SDS011;34544;48.836;9.174;2023-05-10T10:27:43;0.70;;;0.32;;
48751;SDS011;34544;48.836;9.174;2023-05-10T10:35:59;0.57;;;0.28;;
48751;SDS011;34544;48.836;9.174;2023-05-10T10:38:35;0.32;;;0.32;;
48751;SDS011;34544;48.836;9.174;2023-05-10T10:41:37;0.70;;;0.40;;
48751;SDS011;34544;48.836;9.174;2023-05-10T10:49:33;0.22;;;0.20;;
48751;SDS011;34544;48.836;9.174;2023-05-10T10:57:28;0.28;;;0.10;;
48751;SDS011;34544;48.836;9.174;2023-05-10T11:03:08;0.80;;;0.20;;
48751;SDS011;34544;48.836;9.174;2023-05-10T11:08:12;0.35;;;0.30;;
48751;SDS011;34544;48.836;9.174;2023-05-10T11:10:49;0.75;;;0.30;;
48751;SDS011;34544;48.836;9.174;2023-05-10T11:13:17;1.38;;;0.30;;
48751;SDS011;34544;48.836;9.174;2023-05-10T11:15:56;28.60;;;8.13;;
48751;SDS011;34544;48.836;9.174;2023-05-10T11:18:27;8.90;;;3.97;;
48751;SDS011;34544;48.836;9.174;2023-05-10T11:20:58;2.28;;;0.82;;
48751;SDS011;34544;48.836;9.174;2023-05-10T11:26:08;4.28;;;0.73;;
48751;SDS011;34544;48.836;9.174;2023-05-10T11:28:35;1.58;;;1.05;;
48751;SDS011;34544;48.836;9.174;2023-05-10T11:31:06;3.53;;;0.32;;
48751;SDS011;34544;48.836;9.174;2023-05-10T11:33:41;0.90;;;0.25;;
48751;SDS011;34544;48.836;9.174;2023-05-10T11:36:12;3.35;;;0.40;;
48751;SDS011;34544;48.836;9.174;2023-05-10T11:38:39;0.70;;;0.30;;
48751;SDS011;34544;48.836;9.174;2023-05-10T11:41:05;0.57;;;0.32;;
48751;SDS011;34544;48.836;9.174;2023-05-10T11:43:33;1.52;;;0.60;;
48751;SDS011;34544;48.836;9.174;2023-05-10T11:45:58;0.93;;;0.40;;
48751;SDS011;34544;48.836;9.174;2023-05-10T11:48:26;2.00;;;0.50;;
48751;SDS011;34544;48.836;9.174;2023-05-10T11:50:51;0.50;;;0.47;;
48751;SDS011;34544;48.836;9.174;2023-05-10T11:53:20;5.25;;;0.50;;
48751;SDS011;34544;48.836;9.174;2023-05-10T11:55:46;2.03;;;0.85;;
48751;SDS011;34544;48.836;9.174;2023-05-10T11:58:13;3.75;;;1.58;;
48751;SDS011;34544;48.836;9.174;2023-05-10T12:00:39;5.80;;;0.85;;
48751;SDS011;34544;48.836;9.174;2023-05-10T12:03:04;2.53;;;0.60;;
48751;SDS011;34544;48.836;9.174;2023-05-10T12:05:33;5.65;;;0.70;;
48751;SDS011;34544;48.836;9.174;2023-05-10T12:08:13;0.77;;;0.55;;
48751;SDS011;34544;48.836;9.174;2023-05-10T12:10:40;1.27;;;0.50;;
48751;SDS011;34544;48.836;9.174;2023-05-10T12:13:10;0.90;;;0.40;;
48751;SDS011;34544;48.836;9.174;2023-05-10T12:15:40;3.45;;;0.85;;
48751;SDS011;34544;48.836;9.174;2023-05-10T12:18:10;0.55;;;0.50;;
48751;SDS011;34544;48.836;9.174;2023-05-10T12:20:37;0.75;;;0.63;;
48751;SDS011;34544;48.836;9.174;2023-05-10T12:23:03;2.33;;;0.63;;
48751;SDS011;34544;48.836;9.174;2023-05-10T12:25:30;2.08;;;1.27;;
48751;SDS011;34544;48.836;9.174;2023-05-10T12:28:02;4.13;;;0.70;;
48751;SDS011;34544;48.836;9.174;2023-05-10T12:30:31;1.38;;;0.40;;
48751;SDS011;34544;48.836;9.174;2023-05-10T12:35:31;1.48;;;0.57;;
48751;SDS011;34544;48.836;9.174;2023-05-10T12:37:57;1.70;;;0.90;;
48751;SDS011;34544;48.836;9.174;2023-05-10T12:40:23;0.85;;;0.40;;
48751;SDS011;34544;48.836;9.174;2023-05-10T12:42:49;0.60;;;0.40;;
48751;SDS011;34544;48.836;9.174;2023-05-10T12:45:17;3.95;;;0.95;;
48751;SDS011;34544;48.836;9.174;2023-05-10T12:47:42;3.85;;;0.82;;
48751;SDS011;34544;48.836;9.174;2023-05-10T12:50:08;3.47;;;0.90;;
48751;SDS011;34544;48.836;9.174;2023-05-10T12:52:34;1.15;;;0.40;;
48751;SDS011;34544;48.836;9.174;2023-05-10T12:55:00;1.85;;;0.60;;
48751;SDS011;34544;48.836;9.174;2023-05-10T12:57:26;3.22;;;0.60;;
48751;SDS011;34544;48.836;9.174;2023-05-10T12:59:53;1.33;;;0.60;;
48751;SDS011;34544;48.836;9.174;2023-05-10T13:02:19;0.88;;;0.73;;
48751;SDS011;34544;48.836;9.174;2023-05-10T13:04:46;3.45;;;0.50;;
48751;SDS011;34544;48.836;9.174;2023-05-10T13:07:12;2.03;;;0.88;;
48751;SDS011;34544;48.836;9.174;2023-05-10T13:09:38;4.68;;;1.25;;
48751;SDS011;34544;48.836;9.174;2023-05-10T13:12:03;4.05;;;0.52;;
48751;SDS011;34544;48.836;9.174;2023-05-10T13:14:29;2.63;;;0.70;;
48751;SDS011;34544;48.836;9.174;2023-05-10T13:16:56;1.17;;;0.90;;
48751;SDS011;34544;48.836;9.174;2023-05-10T13:19:21;1.10;;;0.40;;
48751;SDS011;34544;48.836;9.174;2023-05-10T13:21:47;1.83;;;0.70;;
48751;SDS011;34544;48.836;9.174;2023-05-10T13:24:13;0.65;;;0.55;;
48751;SDS011;34544;48.836;9.174;2023-05-10T13:26:39;2.72;;;0.90;;
48751;SDS011;34544;48.836;9.174;2023-05-10T13:29:06;2.92;;;0.95;;
48751;SDS011;34544;48.836;9.174;2023-05-10T13:31:32;2.67;;;1.08;;
48751;SDS011;34544;48.836;9.174;2023-05-10T13:33:58;6.00;;;0.70;;
48751;SDS011;34544;48.836;9.174;2023-05-10T13:36:23;1.65;;;0.70;;
48751;SDS011;34544;48.836;9.174;2023-05-10T13:38:49;4.90;;;1.17;;
48751;SDS011;34544;48.836;9.174;2023-05-10T13:41:15;1.63;;;0.68;;
48751;SDS011;34544;48.836;9.174;2023-05-10T13:43:40;2.28;;;0.30;;
48751;SDS011;34544;48.836;9.174;2023-05-10T13:46:06;0.40;;;0.30;;
48751;SDS011;34544;48.836;9.174;2023-05-10T13:48:32;2.30;;;0.60;;
48751;SDS011;34544;48.836;9.174;2023-05-10T13:50:58;2.72;;;0.50;;
48751;SDS011;34544;48.836;9.174;2023-05-10T13:53:23;3.17;;;0.50;;
48751;SDS011;34544;48.836;9.174;2023-05-10T13:55:49;1.13;;;0.80;;
48751;SDS011;34544;48.836;9.174;2023-05-10T13:58:15;2.10;;;1.10;;
48751;SDS011;34544;48.836;9.174;2023-05-10T14:00:41;4.22;;;0.80;;
48751;SDS011;34544;48.836;9.174;2023-05-10T14:03:06;0.32;;;0.28;;
48751;SDS011;34544;48.836;9.174;2023-05-10T14:05:34;4.10;;;0.60;;
48751;SDS011;34544;48.836;9.174;2023-05-10T14:07:59;2.50;;;0.70;;
48751;SDS011;34544;48.836;9.174;2023-05-10T14:10:25;2.45;;;0.90;;
48751;SDS011;34544;48.836;9.174;2023-05-10T14:12:51;0.68;;;0.43;;
48751;SDS011;34544;48.836;9.174;2023-05-10T14:15:16;1.13;;;0.63;;
48751;SDS011;34544;48.836;9.174;2023-05-10T14:17:43;5.63;;;0.47;;
48751;SDS011;34544;48.836;9.174;2023-05-10T14:20:08;2.88;;;0.55;;
48751;SDS011;34544;48.836;9.174;2023-05-10T14:22:34;6.55;;;0.65;;
48751;SDS011;34544;48.836;9.174;2023-05-10T14:25:00;1.33;;;0.50;;
48751;SDS011;34544;48.836;9.174;2023-05-10T14:27:26;3.58;;;0.55;;
48751;SDS011;34544;48.836;9.174;2023-05-10T14:29:52;2.47;;;0.50;;
48751;SDS011;34544;48.836;9.174;2023-05-10T14:32:18;2.50;;;0.40;;
48751;SDS011;34544;48.836;9.174;2023-05-10T14:34:44;1.95;;;0.60;;
48751;SDS011;34544;48.836;9.174;2023-05-10T14:37:10;0.93;;;0.50;;
48751;SDS011;34544;48.836;9.174;2023-05-10T14:39:36;2.08;;;0.47;;
48751;SDS011;34544;48.836;9.174;2023-05-10T14:42:02;1.85;;;0.60;;
48751;SDS011;34544;48.836;9.174;2023-05-10T14:44:28;1.92;;;1.35;;
48751;SDS011;34544;48.836;9.174;2023-05-10T14:46:54;3.00;;;0.88;;
48751;SDS011;34544;48.836;9.174;2023-05-10T14:49:21;1.13;;;0.60;;
48751;SDS011;34544;48.836;9.174;2023-05-10T14:51:47;4.57;;;0.70;;
48751;SDS011;34544;48.836;9.174;2023-05-10T14:54:13;1.75;;;0.50;;
48751;SDS011;34544;48.836;9.174;2023-05-10T14:56:39;3.95;;;0.50;;
48751;SDS011;34544;48.836;9.174;2023-05-10T14:59:06;2.80;;;0.50;;
48751;SDS011;34544;48.836;9.174;2023-05-10T15:01:32;2.05;;;0.63;;
48751;SDS011;34544;48.836;9.174;2023-05-10T15:04:00;1.42;;;0.63;;
48751;SDS011;34544;48.836;9.174;2023-05-10T15:06:35;1.75;;;0.68;;
48751;SDS011;34544;48.836;9.174;2023-05-10T15:09:02;0.52;;;0.50;;
48751;SDS011;34544;48.836;9.174;2023-05-10T15:11:31;2.63;;;0.52;;
48751;SDS011;34544;48.836;9.174;2023-05-10T15:13:57;1.45;;;0.60;;
48751;SDS011;34544;48.836;9.174;2023-05-10T15:16:22;1.30;;;0.60;;
48751;SDS011;34544;48.836;9.174;2023-05-10T15:18:48;2.08;;;1.38;;
48751;SDS011;34544;48.836;9.174;2023-05-10T15:21:14;1.25;;;0.30;;
48751;SDS011;34544;48.836;9.174;2023-05-10T15:23:39;2.38;;;0.55;;
48751;SDS011;34544;48.836;9.174;2023-05-10T15:26:05;1.73;;;0.50;;
48751;SDS011;34544;48.836;9.174;2023-05-10T15:28:31;1.90;;;0.65;;
48751;SDS011;34544;48.836;9.174;2023-05-10T15:30:57;1.25;;;0.68;;